Hillsboro, New Hampshire
Current Conditions -  °F | °C
As of 5:51 AM on Friday 24 Oct 2014 (Local Time) from KCON Reporting Station
Overcast Overcast  
Wind Chill:   Ceiling: 2300
Heat Index:   Visibility: 10mi
Dew Point:   Wind: 8mph
Humidity: 97%   Direction: 330°NNW
Pressure: 29.71"   Gusts: NA
Location:  43.12°N, 71.9°W
Report Text: KCON 240951Z AUTO 33007KT 10SM OVC023 08/08 A2971 RMK AO2 RAE45 SLP062 P0001 T00830078
Loading
Personal Weather Stations






























Interactive Weather Map
Tropical Storm Tracking
New forecast layout! Learn more

10-Day Weather Forecast

Advertisements
Track Severe Weather on mobile